Time;durP1;ratioP1;P1;durP2;ratioP2;P2;SDS_P1;SDS_P2;PMS_P1;PMS_P2;Temp;Humidity;BMP_temperature;BMP_pressure;BME280_temperature;BME280_humidity;BME280_pressure;Samples;Min_cycle;Max_cycle;Signal;HPM_P1;HPM_P2
2021/07/15 00:02:25;;;;;;;0.57;0.30;;;;;;;14.69;92.46;96021.56;5073272;28;20036;-77
2021/07/15 00:04:51;;;;;;;0.65;0.32;;;;;;;14.72;92.48;96022.91;5073226;28;20032;-77
2021/07/15 00:07:18;;;;;;;0.55;0.30;;;;;;;14.73;92.40;96027.94;5073071;28;20056;-77
2021/07/15 00:09:44;;;;;;;0.15;0.15;;;;;;;14.75;92.48;96028.47;5073701;28;20025;-77
2021/07/15 00:12:14;;;;;;;1.83;0.40;;;;;;;14.76;92.44;96016.06;5072554;28;20071;-77
2021/07/15 00:14:40;;;;;;;0.20;0.20;;;;;;;14.75;92.34;96017.91;5062556;28;20056;-77
2021/07/15 00:17:08;;;;;;;3.20;0.20;;;;;;;14.74;92.22;96016.34;5072551;28;20045;-77
2021/07/15 00:19:34;;;;;;;1.08;0.40;;;;;;;14.74;92.40;96012.88;5072927;28;20040;-77
2021/07/15 00:22:01;;;;;;;1.17;0.30;;;;;;;14.74;92.44;96018.97;5073205;28;20033;-77
2021/07/15 00:24:28;;;;;;;0.68;0.30;;;;;;;14.76;92.27;96013.44;5073096;28;20047;-77
2021/07/15 00:26:55;;;;;;;1.65;0.47;;;;;;;14.71;92.16;96008.91;5073493;28;20476;-77
2021/07/15 00:29:21;;;;;;;1.15;0.30;;;;;;;14.70;92.33;96011.81;5073392;28;20036;-77
2021/07/15 00:31:48;;;;;;;0.45;0.30;;;;;;;14.71;92.52;96008.13;5073052;28;20036;-77
2021/07/15 00:34:14;;;;;;;0.50;0.25;;;;;;;14.72;92.62;96007.06;5073077;28;20055;-76
2021/07/15 00:36:40;;;;;;;0.10;0.10;;;;;;;14.75;92.78;95999.44;5072921;28;20036;-77
2021/07/15 00:39:07;;;;;;;0.93;0.30;;;;;;;14.73;92.63;96009.47;5073071;28;20047;-77
2021/07/15 00:41:34;;;;;;;0.98;0.28;;;;;;;14.72;92.81;96007.06;5072836;28;20380;-76
2021/07/15 00:44:01;;;;;;;1.13;0.20;;;;;;;14.74;92.84;96005.78;5072804;28;20049;-76
2021/07/15 00:46:27;;;;;;;0.63;0.15;;;;;;;14.74;92.83;95997.88;5072390;28;20048;-76
2021/07/15 00:48:53;;;;;;;1.35;0.50;;;;;;;14.76;92.95;96001.03;5073999;28;20504;-77
2021/07/15 00:51:21;;;;;;;0.15;0.15;;;;;;;14.72;92.84;96005.25;5077318;28;20024;-76
2021/07/15 00:53:47;;;;;;;1.10;0.25;;;;;;;14.73;92.98;96006.03;5076801;28;20422;-76
2021/07/15 00:56:13;;;;;;;0.38;0.13;;;;;;;14.71;93.19;96006.28;5074342;28;20048;-76
2021/07/15 00:58:40;;;;;;;0.80;0.40;;;;;;;14.70;93.25;96009.97;5076544;28;20453;-76
2021/07/15 01:01:08;;;;;;;2.42;0.30;;;;;;;14.66;93.29;96003.63;5076498;28;20029;-76
2021/07/15 01:03:35;;;;;;;0.30;0.30;;;;;;;14.63;93.29;96009.38;5076260;28;20028;-76
2021/07/15 01:06:01;;;;;;;1.35;0.20;;;;;;;14.61;93.60;95998.28;5076522;28;20032;-76
2021/07/15 01:08:27;;;;;;;2.03;0.40;;;;;;;14.58;93.69;96004.09;5076138;28;20032;-76
2021/07/15 01:11:13;;;;;;;1.45;0.10;;;;;;;14.55;94.37;96000.13;5075887;28;20024;-76
2021/07/15 01:14:01;;;;;;;0.40;0.20;;;;;;;14.53;94.81;95996.91;5076222;28;20048;-76
2021/07/15 01:16:33;;;;;;;1.60;0.30;;;;;;;14.53;94.60;96011.91;5068137;28;20048;-76
2021/07/15 01:19:27;;;;;;;0.77;0.20;;;;;;;14.52;94.73;96011.13;5074840;28;20039;-76
2021/07/15 01:22:09;;;;;;;1.55;0.20;;;;;;;14.47;94.91;96005.84;5075280;28;20052;-76
2021/07/15 01:24:45;;;;;;;0.70;0.20;;;;;;;14.45;94.88;96004.47;5076259;28;20044;-76
2021/07/15 01:27:34;;;;;;;0.98;0.20;;;;;;;14.42;94.81;96008.41;5076371;28;20043;-76
2021/07/15 01:30:03;;;;;;;0.55;0.30;;;;;;;14.38;94.91;96002.06;5064395;28;20045;-77
2021/07/15 01:32:32;;;;;;;1.67;0.20;;;;;;;14.35;94.96;95999.94;5075913;28;20055;-78
2021/07/15 01:35:04;;;;;;;0.95;0.45;;;;;;;14.33;95.68;95994.91;5064682;28;20040;-76
2021/07/15 01:37:32;;;;;;;0.70;0.20;;;;;;;14.29;95.62;95985.91;5075277;28;20047;-76
2021/07/15 01:40:00;;;;;;;0.13;0.10;;;;;;;14.25;95.77;95984.81;5075318;28;20053;-76
2021/07/15 01:42:28;;;;;;;0.30;0.20;;;;;;;14.17;95.87;95978.19;5075448;28;20044;-76
2021/07/15 01:44:55;;;;;;;0.17;0.10;;;;;;;14.16;96.34;95973.16;5075561;28;20036;-76
2021/07/15 01:47:23;;;;;;;0.20;0.20;;;;;;;14.14;96.48;95968.13;5075754;28;20405;-76
2021/07/15 01:49:56;;;;;;;1.00;0.30;;;;;;;14.14;96.73;95975.25;5075320;28;20049;-76
2021/07/15 01:52:23;;;;;;;1.85;0.20;;;;;;;14.09;96.85;95967.28;5075472;28;20036;-76
2021/07/15 01:54:51;;;;;;;1.27;0.30;;;;;;;14.02;96.86;95970.13;5075124;28;20049;-76
2021/07/15 01:57:19;;;;;;;0.50;0.28;;;;;;;13.96;97.35;95973.78;5075377;28;20032;-76
2021/07/15 01:59:46;;;;;;;1.95;0.30;;;;;;;13.97;97.93;95985.91;5074499;28;20025;-76
2021/07/15 02:02:14;;;;;;;1.65;0.10;;;;;;;13.97;98.04;95976.16;5075908;28;20048;-78
2021/07/15 02:04:41;;;;;;;1.55;0.20;;;;;;;14.01;98.23;95987.00;5075301;28;20032;-79
2021/07/15 02:07:10;;;;;;;1.63;0.40;;;;;;;14.04;98.28;95983.84;5075403;28;20083;-78
2021/07/15 02:09:37;;;;;;;2.10;0.20;;;;;;;14.02;98.10;95972.78;5075219;28;20044;-78
2021/07/15 02:12:04;;;;;;;0.52;0.20;;;;;;;13.99;98.29;95981.97;5075455;28;20029;-79
2021/07/15 02:14:32;;;;;;;1.45;0.30;;;;;;;13.94;98.22;95979.31;5074903;28;20041;-79
2021/07/15 02:17:00;;;;;;;1.85;0.30;;;;;;;13.94;98.83;95974.03;5075639;28;20041;-79
2021/07/15 02:19:28;;;;;;;1.30;0.22;;;;;;;13.97;98.92;95984.06;5074836;28;20025;-77
2021/07/15 02:21:56;;;;;;;3.03;0.32;;;;;;;14.04;99.07;95985.72;5074986;28;20033;-77
2021/07/15 02:24:26;;;;;;;0.80;0.15;;;;;;;14.10;99.25;95974.94;5075402;28;20037;-76
2021/07/15 02:26:54;;;;;;;0.40;0.20;;;;;;;14.13;98.85;95976.28;5074444;28;20028;-77
2021/07/15 02:29:21;;;;;;;0.10;0.10;;;;;;;14.16;98.81;95973.94;5074807;28;20032;-77
2021/07/15 02:32:01;;;;;;;0.22;0.22;;;;;;;14.19;98.76;95972.63;5075246;28;20024;-77
2021/07/15 02:34:45;;;;;;;2.80;0.28;;;;;;;14.21;98.27;95971.38;5074067;28;20048;-77
2021/07/15 02:37:14;;;;;;;1.45;0.30;;;;;;;14.16;98.17;95960.75;5062887;28;20382;-77
2021/07/15 02:39:40;;;;;;;3.55;0.40;;;;;;;14.14;98.11;95967.34;5074517;28;20457;-77
2021/07/15 02:42:10;;;;;;;1.13;0.20;;;;;;;14.12;98.18;95972.84;5074403;28;20036;-76
2021/07/15 02:44:39;;;;;;;0.82;0.20;;;;;;;14.14;98.25;95967.34;5074878;28;20025;-77
2021/07/15 02:47:07;;;;;;;1.33;0.30;;;;;;;14.16;98.54;95979.22;5074519;28;20045;-77
2021/07/15 02:49:34;;;;;;;1.52;0.30;;;;;;;14.18;98.31;95973.69;5074333;28;20047;-77
2021/07/15 02:52:00;;;;;;;1.30;0.30;;;;;;;14.19;98.27;95977.91;5073947;28;20488;-77
2021/07/15 02:54:26;;;;;;;0.32;0.20;;;;;;;14.20;98.17;95977.66;5074251;28;20377;-77
2021/07/15 02:57:01;;;;;;;2.15;0.38;;;;;;;14.23;98.09;95976.38;5073456;28;20063;-77
2021/07/15 02:59:55;;;;;;;0.70;0.13;;;;;;;14.26;97.70;95983.78;5058697;28;20044;-77
2021/07/15 03:03:00;;;;;;;1.35;0.28;;;;;;;14.28;97.14;95992.25;5073957;28;20037;-77
2021/07/15 03:05:34;;;;;;;9.83;0.50;;;;;;;14.26;97.52;95985.59;5051388;28;20037;-78
2021/07/15 03:08:06;;;;;;;;;;;;;;;14.26;97.03;95991.69;5074026;28;20271;-77
2021/07/15 03:10:34;;;;;;;1.73;0.30;;;;;;;14.24;97.44;95975.34;5073090;28;20349;-77
2021/07/15 03:13:09;;;;;;;3.05;0.30;;;;;;;14.25;97.61;95976.91;5074091;28;20036;-77
2021/07/15 03:15:36;;;;;;;;;;;;;;;14.19;97.13;95976.09;5061426;28;20384;-77
2021/07/15 03:18:05;;;;;;;0.30;0.20;;;;;;;14.15;97.33;95980.28;5073820;28;19921;-78
2021/07/15 03:20:37;;;;;;;1.27;0.30;;;;;;;14.15;97.43;95980.28;5073055;28;20067;-78
2021/07/15 03:23:09;;;;;;;0.68;0.28;;;;;;;14.13;97.38;95977.09;5074144;28;20028;-77
2021/07/15 03:25:36;;;;;;;1.55;0.30;;;;;;;14.14;97.45;95977.88;5073913;28;20040;-77
2021/07/15 03:28:06;;;;;;;1.17;0.30;;;;;;;14.14;97.46;95975.25;5074189;28;20048;-77
2021/07/15 03:30:33;;;;;;;1.02;0.30;;;;;;;14.13;97.31;95969.19;5073645;28;20035;-77
2021/07/15 03:33:00;;;;;;;1.00;0.20;;;;;;;14.13;97.49;95969.19;5073529;28;20037;-77
2021/07/15 03:35:27;;;;;;;2.35;0.20;;;;;;;14.14;97.44;95965.50;5073567;28;20033;-77
2021/07/15 03:37:56;;;;;;;1.70;0.30;;;;;;;14.17;97.48;95970.28;5073094;28;20063;-77
2021/07/15 03:40:24;;;;;;;1.60;0.28;;;;;;;14.18;97.45;95976.34;5073594;28;20099;-77
2021/07/15 03:42:51;;;;;;;2.80;0.30;;;;;;;14.19;97.43;95986.66;5073504;28;20040;-77
2021/07/15 03:45:19;;;;;;;1.85;0.30;;;;;;;14.22;97.57;95998.53;5072432;28;20461;-77
2021/07/15 03:47:52;;;;;;;2.47;0.47;;;;;;;14.23;97.22;95996.69;5073973;28;20048;-77
2021/07/15 03:50:23;;;;;;;3.63;0.30;;;;;;;14.23;97.11;96001.94;5072943;28;20060;-77
2021/07/15 03:52:52;;;;;;;0.95;0.20;;;;;;;14.23;97.15;96000.09;5072556;28;20048;-77
2021/07/15 03:55:23;;;;;;;1.27;0.20;;;;;;;14.20;96.84;95997.97;5072128;28;20064;-77
2021/07/15 03:57:50;;;;;;;0.75;0.35;;;;;;;14.20;96.84;96011.16;5074016;28;20406;-77
2021/07/15 04:00:21;;;;;;;0.90;0.35;;;;;;;14.19;97.15;96002.47;5073209;28;20048;-75
2021/07/15 04:02:50;;;;;;;0.30;0.30;;;;;;;14.23;97.29;95994.81;5073650;28;20036;-75
2021/07/15 04:05:20;;;;;;;1.30;0.20;;;;;;;14.27;97.15;95997.75;5072821;28;20044;-76
2021/07/15 04:07:47;;;;;;;0.47;0.10;;;;;;;14.26;96.53;95998.78;5073209;28;20028;-76
2021/07/15 04:10:15;;;;;;;3.42;0.68;;;;;;;14.29;96.82;96012.28;5073232;28;20460;-75
2021/07/15 04:12:43;;;;;;;1.38;0.30;;;;;;;14.30;96.89;96010.44;5071578;28;20405;-77
2021/07/15 04:15:11;;;;;;;0.75;0.50;;;;;;;14.30;96.64;95995.44;5073286;28;20472;-77
2021/07/15 04:17:54;;;;;;;0.17;0.10;;;;;;;14.32;96.50;96003.88;5073149;28;20040;-77
2021/07/15 04:20:22;;;;;;;3.40;1.00;;;;;;;14.33;96.63;96009.94;5073455;28;20037;-77
2021/07/15 04:22:51;;;;;;;1.08;0.22;;;;;;;14.32;96.25;96009.16;5075588;28;20377;-77
2021/07/15 04:25:20;;;;;;;0.80;0.15;;;;;;;14.34;96.31;96006.25;5077156;28;20052;-77
2021/07/15 04:27:52;;;;;;;0.57;0.22;;;;;;;14.33;96.23;96005.47;5077369;28;20029;-77
2021/07/15 04:30:19;;;;;;;0.57;0.22;;;;;;;14.32;95.95;96010.97;5077075;28;20457;-77
2021/07/15 04:32:55;;;;;;;0.20;0.20;;;;;;;14.31;96.13;96010.19;5076753;28;20033;-77
2021/07/15 04:35:22;;;;;;;0.32;0.17;;;;;;;14.32;96.18;96014.44;5077289;28;20024;-77
2021/07/15 04:37:51;;;;;;;4.07;0.30;;;;;;;14.35;96.44;96013.13;5077122;28;20368;-77
2021/07/15 04:40:19;;;;;;;0.52;0.28;;;;;;;14.37;96.35;96013.66;5076972;28;20037;-77
2021/07/15 04:42:49;;;;;;;0.47;0.30;;;;;;;14.37;95.80;96006.53;5076620;28;20040;-77
2021/07/15 04:45:16;;;;;;;1.00;0.20;;;;;;;14.36;95.73;96007.59;5075482;28;20044;-77
2021/07/15 04:47:46;;;;;;;2.22;0.40;;;;;;;14.34;95.54;96006.25;5076506;28;20066;-77
2021/07/15 04:50:18;;;;;;;2.30;0.40;;;;;;;14.33;95.69;96009.94;5076181;28;20440;-77
2021/07/15 04:52:49;;;;;;;0.85;0.30;;;;;;;14.33;95.76;96008.09;5076825;28;20036;-77
2021/07/15 04:55:19;;;;;;;0.80;0.25;;;;;;;14.37;95.76;96014.47;5076518;28;20028;-77
2021/07/15 04:57:48;;;;;;;0.32;0.20;;;;;;;14.40;95.89;96013.97;5077251;28;20029;-77
2021/07/15 05:00:16;;;;;;;0.60;0.30;;;;;;;14.47;95.95;96012.94;5076413;28;20036;-77
2021/07/15 05:02:43;;;;;;;0.93;0.30;;;;;;;14.48;95.40;96003.97;5076434;28;20040;-77
2021/07/15 05:05:11;;;;;;;1.65;0.28;;;;;;;14.47;95.23;96010.28;5076683;28;20040;-77
2021/07/15 05:07:39;;;;;;;1.30;0.28;;;;;;;14.50;95.38;96015.09;5076257;28;20040;-78
2021/07/15 05:10:10;;;;;;;0.40;0.30;;;;;;;14.53;95.46;95998.72;5076447;28;20036;-78
2021/07/15 05:12:37;;;;;;;0.75;0.20;;;;;;;14.56;95.10;95991.13;5076120;28;20461;-77
2021/07/15 05:15:07;;;;;;;1.00;0.70;;;;;;;14.60;95.31;95988.78;5076038;28;20051;-77
2021/07/15 05:17:34;;;;;;;1.85;0.45;;;;;;;14.66;95.16;95992.25;5076019;28;20058;-78
2021/07/15 05:20:04;;;;;;;1.80;0.20;;;;;;;14.68;95.03;95996.25;5075964;28;20040;-78
2021/07/15 05:22:30;;;;;;;0.93;0.38;;;;;;;14.66;94.49;95987.78;5075819;28;20041;-78
2021/07/15 05:24:56;;;;;;;1.75;0.30;;;;;;;14.59;94.12;95984.56;5076123;28;20370;-77
2021/07/15 05:27:22;;;;;;;0.75;0.20;;;;;;;14.56;94.42;95983.22;5075937;28;20032;-77
2021/07/15 05:29:48;;;;;;;0.40;0.30;;;;;;;14.56;94.53;95985.88;5075963;28;20099;-77
2021/07/15 05:32:14;;;;;;;2.22;0.20;;;;;;;14.58;94.58;95983.75;5076146;28;20040;-78
2021/07/15 05:34:41;;;;;;;0.38;0.20;;;;;;;14.61;94.58;96000.94;5074965;28;20045;-77
2021/07/15 05:37:07;;;;;;;5.03;0.90;;;;;;;14.63;94.76;95992.75;5076138;28;20052;-77
2021/07/15 05:39:34;;;;;;;0.85;0.30;;;;;;;14.69;95.01;95999.66;5075670;28;20048;-77
2021/07/15 05:42:00;;;;;;;0.65;0.30;;;;;;;14.71;94.52;96005.50;5075772;28;20400;-77
2021/07/15 05:44:26;;;;;;;0.65;0.20;;;;;;;14.74;94.45;96008.41;5075563;28;20047;-78
2021/07/15 05:46:52;;;;;;;1.15;0.40;;;;;;;14.74;94.35;96015.53;5075643;28;20049;-78
2021/07/15 05:49:21;;;;;;;1.63;0.38;;;;;;;14.74;94.26;96018.16;5074760;28;20064;-78
2021/07/15 05:51:49;;;;;;;2.00;0.32;;;;;;;14.71;94.08;96021.31;5075643;28;20449;-77
2021/07/15 05:54:16;;;;;;;0.10;0.10;;;;;;;14.74;94.12;96018.16;5075681;28;20036;-78
2021/07/15 05:56:42;;;;;;;2.60;0.50;;;;;;;14.92;94.67;96023.03;5075991;28;20032;-77
2021/07/15 05:59:08;;;;;;;0.32;0.30;;;;;;;15.15;93.91;96016.53;5074705;28;20057;-77
2021/07/15 06:01:34;;;;;;;1.25;0.35;;;;;;;15.31;93.43;96014.78;5075405;28;20041;-77
2021/07/15 06:04:02;;;;;;;1.13;0.40;;;;;;;15.37;92.80;96023.50;5075707;28;20056;-77
2021/07/15 06:06:29;;;;;;;1.75;0.43;;;;;;;15.35;92.42;96029.06;5075094;28;20055;-77
2021/07/15 06:08:55;;;;;;;0.85;0.32;;;;;;;15.33;92.30;96035.63;5074790;28;20047;-77
2021/07/15 06:11:21;;;;;;;0.52;0.20;;;;;;;15.31;92.21;96032.47;5075219;28;20025;-78
2021/07/15 06:13:48;;;;;;;0.75;0.20;;;;;;;15.29;92.03;96039.88;5073773;28;20052;-77
2021/07/15 06:16:14;;;;;;;0.30;0.20;;;;;;;15.27;91.86;96034.84;5075208;28;20024;-78
2021/07/15 06:18:40;;;;;;;0.70;0.30;;;;;;;15.23;91.64;96046.97;5075298;28;20040;-79
2021/07/15 06:21:07;;;;;;;0.52;0.40;;;;;;;15.18;91.49;96042.47;5074217;28;20048;-78
2021/07/15 06:23:33;;;;;;;1.05;0.40;;;;;;;15.13;91.49;96047.69;5075026;28;20043;-79
2021/07/15 06:26:00;;;;;;;0.22;0.22;;;;;;;15.14;92.07;96051.13;5074913;28;20036;-78
2021/07/15 06:28:27;;;;;;;0.93;0.45;;;;;;;15.15;92.05;96050.88;5074786;28;20067;-79
2021/07/15 06:30:54;;;;;;;0.25;0.20;;;;;;;15.19;92.01;96057.25;5073074;28;20048;-77
2021/07/15 06:33:20;;;;;;;0.50;0.30;;;;;;;15.21;92.06;96059.63;5074134;28;20052;-77
2021/07/15 06:35:50;;;;;;;0.75;0.40;;;;;;;15.23;92.14;96062.81;5074975;28;20041;-77
2021/07/15 06:38:16;;;;;;;0.73;0.20;;;;;;;15.26;92.15;96057.00;5074424;28;20473;-77
2021/07/15 06:40:44;;;;;;;0.45;0.30;;;;;;;15.33;92.23;96056.78;5074322;28;20028;-76
2021/07/15 06:43:10;;;;;;;1.40;0.30;;;;;;;15.39;91.69;96053.91;5073402;28;20036;-78
2021/07/15 06:45:36;;;;;;;0.55;0.20;;;;;;;15.43;91.30;96062.09;5074192;28;20488;-77
2021/07/15 06:48:03;;;;;;;1.13;0.30;;;;;;;15.48;91.48;96067.44;5073977;28;20049;-77
2021/07/15 06:50:29;;;;;;;0.88;0.30;;;;;;;15.59;91.30;96057.69;5074289;28;20049;-77
2021/07/15 06:52:55;;;;;;;2.22;0.30;;;;;;;15.70;91.31;96059.28;5074495;28;20469;-77
2021/07/15 06:55:21;;;;;;;0.30;0.20;;;;;;;15.81;90.74;96063.63;5072802;28;20053;-77
2021/07/15 06:57:47;;;;;;;1.20;0.30;;;;;;;15.89;90.66;96049.06;5073114;28;20049;-77
2021/07/15 07:00:17;;;;;;;1.27;0.20;;;;;;;15.93;89.48;96052.78;5074096;28;20035;-77
2021/07/15 07:02:45;;;;;;;1.38;0.20;;;;;;;15.95;89.40;96047.25;5074170;28;20032;-77
2021/07/15 07:05:13;;;;;;;1.65;0.28;;;;;;;15.99;89.23;96043.81;5073503;28;20485;-77
2021/07/15 07:07:39;;;;;;;0.68;0.20;;;;;;;16.01;88.46;96040.91;5074030;28;20040;-77
2021/07/15 07:10:08;;;;;;;0.73;0.28;;;;;;;15.99;88.58;96041.16;5074014;28;20461;-77
2021/07/15 07:12:34;;;;;;;0.73;0.20;;;;;;;16.00;88.82;96042.75;5073999;28;20035;-77
2021/07/15 07:15:01;;;;;;;0.60;0.22;;;;;;;16.00;88.64;96037.47;5073647;28;20028;-77
2021/07/15 07:17:27;;;;;;;1.67;0.35;;;;;;;15.96;88.31;96040.91;5073929;28;20036;-77
2021/07/15 07:19:53;;;;;;;0.47;0.25;;;;;;;16.01;88.77;96046.19;5073917;28;20040;-77
2021/07/15 07:22:20;;;;;;;1.42;0.25;;;;;;;16.12;88.77;96045.16;5073549;28;20040;-75
2021/07/15 07:24:46;;;;;;;0.40;0.20;;;;;;;16.18;88.42;96046.75;5073629;28;20029;-76
2021/07/15 07:27:12;;;;;;;0.50;0.20;;;;;;;16.28;88.28;96045.97;5072892;28;20045;-76
2021/07/15 07:29:38;;;;;;;0.93;0.20;;;;;;;16.37;87.95;96043.59;5073069;28;20052;-75
2021/07/15 07:32:05;;;;;;;0.55;0.20;;;;;;;16.43;87.30;96039.88;5073669;28;20036;-75
2021/07/15 07:34:31;;;;;;;0.40;0.13;;;;;;;16.41;86.97;96040.13;5073678;28;20048;-75
2021/07/15 07:36:58;;;;;;;0.75;0.20;;;;;;;16.47;87.02;96046.22;5073113;28;20051;-75
2021/07/15 07:39:25;;;;;;;0.32;0.30;;;;;;;16.72;86.92;96044.63;5073162;28;20043;-75
2021/07/15 07:41:51;;;;;;;0.95;0.20;;;;;;;16.95;85.64;96040.66;5072487;28;20032;-76
2021/07/15 07:44:18;;;;;;;1.58;0.20;;;;;;;17.02;85.03;96049.91;5073567;28;20024;-75
2021/07/15 07:46:44;;;;;;;0.40;0.20;;;;;;;17.00;84.55;96045.94;5073881;28;20044;-75
2021/07/15 07:49:10;;;;;;;0.28;0.20;;;;;;;16.98;84.58;96046.19;5073110;28;20412;-76
2021/07/15 07:51:36;;;;;;;0.73;0.20;;;;;;;16.96;84.45;96039.59;5064886;28;20067;-75
2021/07/15 07:54:03;;;;;;;0.85;0.17;;;;;;;16.96;83.98;96050.97;5073333;28;20043;-75
2021/07/15 07:56:32;;;;;;;1.15;0.52;;;;;;;16.95;83.73;96052.03;5072845;28;20044;-76
2021/07/15 07:58:59;;;;;;;0.35;0.20;;;;;;;16.99;83.88;96047.00;5073248;28;20040;-77
2021/07/15 08:01:29;;;;;;;0.10;0.10;;;;;;;16.98;83.05;96048.06;5059680;28;20033;-76
2021/07/15 08:03:56;;;;;;;0.20;0.20;;;;;;;16.97;83.09;96046.50;5072522;28;20048;-76
2021/07/15 08:06:23;;;;;;;0.77;0.10;;;;;;;17.03;83.09;96053.38;5071591;28;20048;-76
2021/07/15 08:08:50;;;;;;;0.38;0.30;;;;;;;17.01;82.85;96055.50;5073075;28;20366;-76
2021/07/15 08:11:17;;;;;;;0.63;0.10;;;;;;;16.91;82.74;96068.75;5073162;28;20032;-76
2021/07/15 08:13:43;;;;;;;0.20;0.20;;;;;;;16.84;82.68;96067.16;5073445;28;20033;-77
2021/07/15 08:16:09;;;;;;;0.52;0.20;;;;;;;16.83;82.96;96068.22;5073338;28;20029;-78
2021/07/15 08:18:35;;;;;;;0.28;0.20;;;;;;;16.79;82.93;96075.06;5072335;28;20401;-78
2021/07/15 08:21:02;;;;;;;0.10;0.10;;;;;;;16.75;82.89;96079.31;5072766;28;20052;-78
2021/07/15 08:23:28;;;;;;;1.30;0.20;;;;;;;16.76;83.33;96078.25;5072437;28;20056;-78
2021/07/15 08:25:54;;;;;;;0.10;0.10;;;;;;;16.79;83.45;96080.34;5072898;28;20094;-78
2021/07/15 08:28:20;;;;;;;0.10;0.10;;;;;;;16.81;83.09;96080.91;5071396;28;20055;-78
2021/07/15 08:30:46;;;;;;;0.28;0.13;;;;;;;16.76;82.85;96091.50;5072966;28;20033;-78
2021/07/15 08:33:13;;;;;;;1.13;0.10;;;;;;;16.73;82.65;96092.00;5073198;28;20042;-78
2021/07/15 08:35:39;;;;;;;0.10;0.10;;;;;;;16.70;82.51;96089.91;5073501;28;20029;-78
2021/07/15 08:38:05;;;;;;;1.27;0.30;;;;;;;16.73;83.11;96086.72;5072919;28;20033;-76
2021/07/15 08:40:31;;;;;;;0.10;0.10;;;;;;;16.85;83.17;96089.13;5072961;28;20047;-76
2021/07/15 08:42:58;;;;;;;0.10;0.10;;;;;;;16.92;82.41;96091.50;5072968;28;20037;-76
2021/07/15 08:45:25;;;;;;;0.25;0.10;;;;;;;17.01;82.28;96101.31;5072788;28;20052;-76
2021/07/15 08:47:54;;;;;;;0.10;0.10;;;;;;;17.15;82.35;96098.88;5072734;28;20388;-76
2021/07/15 08:50:20;;;;;;;0.73;0.20;;;;;;;17.32;82.22;96101.22;5072766;28;20045;-76
2021/07/15 08:52:47;;;;;;;0.17;0.17;;;;;;;17.50;81.87;96099.06;5072921;28;20036;-76
2021/07/15 08:57:40;;;;;;;0.10;0.10;;;;;;;17.63;80.22;96111.75;5073397;28;20032;-76
2021/07/15 09:00:12;;;;;;;0.10;0.10;;;;;;;17.68;80.25;96118.88;5072691;28;20036;-77
2021/07/15 09:02:39;;;;;;;1.55;0.20;;;;;;;17.74;80.16;96110.63;5071499;28;20040;-76
2021/07/15 09:05:07;;;;;;;0.00;0.00;;;;;;;17.83;80.54;96110.91;5072808;28;20047;-76
2021/07/15 09:07:35;;;;;;;0.63;0.10;;;;;;;17.96;80.24;96109.53;5073155;28;20384;-76
2021/07/15 09:10:02;;;;;;;0.10;0.10;;;;;;;18.06;79.47;96112.13;5075439;28;20072;-76
2021/07/15 09:12:30;;;;;;;1.00;0.10;;;;;;;18.12;78.91;96115.53;5075487;28;20048;-77
2021/07/15 09:14:59;;;;;;;0.15;0.13;;;;;;;18.15;79.12;96105.19;5076445;28;20037;-76
2021/07/15 09:17:31;;;;;;;0.90;0.20;;;;;;;18.19;78.61;96108.09;5076223;28;20045;-77
2021/07/15 09:19:58;;;;;;;0.60;0.10;;;;;;;18.21;79.07;96116.56;5076186;28;20720;-76
2021/07/15 09:22:24;;;;;;;0.65;0.25;;;;;;;18.18;79.05;96115.22;5076012;28;20040;-77
2021/07/15 09:24:53;;;;;;;2.47;0.35;;;;;;;18.17;79.28;96121.63;5075345;28;20040;-76
2021/07/15 09:27:22;;;;;;;0.95;0.25;;;;;;;18.16;79.61;96119.22;5076039;28;20040;-76
2021/07/15 09:30:12;;;;;;;0.85;0.47;;;;;;;18.14;80.78;96114.22;5076451;28;20024;-77
2021/07/15 09:32:56;;;;;;;1.33;0.30;;;;;;;18.11;80.30;96122.72;5066679;28;20455;-76
2021/07/15 09:35:33;;;;;;;;;;;;;;;18.10;78.92;96113.19;5076255;28;20029;-75
2021/07/15 09:38:10;;;;;;;0.10;0.10;;;;;;;18.09;80.11;96121.41;5075309;28;19915;-76
2021/07/15 09:40:44;;;;;;;0.13;0.10;;;;;;;18.10;80.34;96122.97;5075714;28;20040;-76
2021/07/15 09:43:16;;;;;;;0.40;0.10;;;;;;;18.09;80.23;96124.84;5075450;28;20047;-76
2021/07/15 09:45:44;;;;;;;0.20;0.10;;;;;;;18.06;80.36;96130.72;5076207;28;20041;-76
2021/07/15 09:48:16;;;;;;;0.55;0.30;;;;;;;18.03;80.44;96128.59;5073335;28;20049;-76
2021/07/15 09:50:43;;;;;;;0.13;0.13;;;;;;;18.00;80.55;96124.63;5075641;28;20040;-76
2021/07/15 09:53:16;;;;;;;0.10;0.10;;;;;;;18.01;80.71;96125.41;5075572;28;20036;-75
2021/07/15 09:55:43;;;;;;;0.30;0.10;;;;;;;17.98;80.58;96124.09;5075481;28;20051;-75
2021/07/15 09:58:11;;;;;;;0.03;0.03;;;;;;;17.97;80.85;96129.69;5074952;28;20770;-75
2021/07/15 10:00:39;;;;;;;0.13;0.10;;;;;;;17.94;80.96;96136.31;5075019;28;20049;-75
2021/07/15 10:03:08;;;;;;;1.05;0.30;;;;;;;17.97;81.09;96133.13;5075435;28;20483;-75
2021/07/15 10:05:36;;;;;;;0.10;0.10;;;;;;;18.04;81.50;96133.63;5075239;28;20341;-75
2021/07/15 10:08:10;;;;;;;0.55;0.20;;;;;;;18.18;81.45;96133.81;5075329;28;20037;-75
2021/07/15 10:10:37;;;;;;;0.15;0.15;;;;;;;18.30;81.31;96130.03;5074760;28;20040;-75
2021/07/15 10:13:15;;;;;;;0.10;0.10;;;;;;;18.42;80.79;96133.94;5074909;28;20035;-75
2021/07/15 10:15:47;;;;;;;0.10;0.10;;;;;;;18.56;80.86;96133.31;5075796;28;20033;-75
2021/07/15 10:18:13;;;;;;;0.15;0.10;;;;;;;18.67;80.85;96138.28;5074150;28;20048;-75
2021/07/15 10:20:54;;;;;;;0.25;0.10;;;;;;;18.77;79.32;96134.78;5074668;28;20040;-75
2021/07/15 10:23:30;;;;;;;0.40;0.40;;;;;;;18.84;80.08;96145.91;5073664;28;20044;-75
2021/07/15 10:25:58;;;;;;;0.32;0.10;;;;;;;18.76;79.85;96130.53;5074951;28;20354;-75
2021/07/15 10:28:26;;;;;;;0.45;0.10;;;;;;;18.71;80.25;96141.19;5074935;28;20028;-75
2021/07/15 10:30:53;;;;;;;0.00;0.00;;;;;;;18.73;80.27;96140.91;5074108;28;20127;-76
2021/07/15 10:33:19;;;;;;;3.38;3.17;;;;;;;18.73;80.31;96141.72;5074942;28;20031;-76
2021/07/15 10:35:46;;;;;;;3.30;2.25;;;;;;;18.75;80.24;96139.56;5074976;28;20029;-76
2021/07/15 10:38:12;;;;;;;1.15;1.15;;;;;;;18.87;80.51;96139.22;5074248;28;20044;-76
2021/07/15 10:40:39;;;;;;;0.32;0.32;;;;;;;18.98;80.00;96137.28;5074491;28;20044;-77
2021/07/15 10:43:05;;;;;;;0.85;0.73;;;;;;;19.09;79.77;96138.78;5074594;28;20032;-76
2021/07/15 10:45:31;;;;;;;0.15;0.10;;;;;;;19.21;79.35;96141.06;5073407;28;20381;-76
2021/07/15 10:47:57;;;;;;;2.20;2.00;;;;;;;19.30;79.30;96135.91;5073073;28;20492;-76
2021/07/15 10:50:24;;;;;;;0.17;0.17;;;;;;;19.37;78.51;96141.72;5074617;28;20044;-76
2021/07/15 10:52:50;;;;;;;0.13;0.13;;;;;;;19.32;78.47;96145.22;5074783;28;20063;-76
2021/07/15 10:55:18;;;;;;;0.20;0.20;;;;;;;19.23;77.97;96146.88;5074334;28;20041;-76
2021/07/15 10:57:49;;;;;;;0.10;0.10;;;;;;;19.13;78.44;96146.97;5074742;28;20040;-76
2021/07/15 11:00:25;;;;;;;0.10;0.10;;;;;;;19.00;79.06;96154.56;5074257;28;20040;-77
2021/07/15 11:03:09;;;;;;;0.20;0.10;;;;;;;18.82;79.59;96158.66;5074291;28;20444;-74
2021/07/15 11:05:54;;;;;;;0.30;0.30;;;;;;;18.64;79.57;96151.31;5073601;28;20055;-74
2021/07/15 11:08:39;;;;;;;;;;;;;;;18.53;80.73;96163.88;5074720;28;20098;-74
2021/07/15 11:11:06;;;;;;;0.85;0.13;;;;;;;18.43;80.21;96161.28;5073804;28;19908;-74
2021/07/15 11:13:33;;;;;;;0.15;0.10;;;;;;;18.38;80.69;96164.78;5074168;28;20036;-74
2021/07/15 11:16:03;;;;;;;0.20;0.20;;;;;;;18.41;81.01;96163.41;5073537;28;20051;-74
2021/07/15 11:21:32;;;;;;;0.20;0.20;;;;;;;18.55;81.52;96164.41;5064780;28;20488;-75
2021/07/15 11:24:04;;;;;;;0.15;0.10;;;;;;;18.67;82.12;96170.16;5064930;28;20040;-74
2021/07/15 11:26:33;;;;;;;0.15;0.15;;;;;;;18.78;81.65;96178.88;5073490;28;20028;-74
2021/07/15 11:29:00;;;;;;;0.47;0.20;;;;;;;18.85;81.46;96163.41;5073687;28;20384;-75
2021/07/15 11:31:46;;;;;;;0.20;0.20;;;;;;;18.98;82.56;96174.47;5072433;28;20060;-74
2021/07/15 11:34:40;;;;;;;0.20;0.20;;;;;;;19.10;81.44;96169.59;5073627;28;20024;-74
2021/07/15 11:37:32;;;;;;;0.40;0.20;;;;;;;19.24;81.44;96167.88;5071732;28;20039;-75
2021/07/15 11:40:00;;;;;;;0.60;0.20;;;;;;;19.30;81.09;96165.97;5067808;28;20036;-74
2021/07/15 11:42:28;;;;;;;0.32;0.20;;;;;;;19.45;81.09;96160.50;5073144;28;20528;-75
2021/07/15 11:44:58;;;;;;;0.25;0.25;;;;;;;19.63;81.01;96166.16;5073779;28;20036;-75
2021/07/15 11:47:42;;;;;;;1.00;0.25;;;;;;;19.81;80.45;96162.81;5073941;28;20053;-75
2021/07/15 11:50:27;;;;;;;0.20;0.20;;;;;;;20.11;79.93;96165.41;5073588;28;20045;-75